Time;durP1;ratioP1;P1;durP2;ratioP2;P2;SDS_P1;SDS_P2;PMS_P1;PMS_P2;Temp;Humidity;BMP_temperature;BMP_pressure;BME280_temperature;BME280_humidity;BME280_pressure;Samples;Min_cycle;Max_cycle;Signal;HPM_P1;HPM_P2
2021/04/21 00:00:29;;;;;;;9.85;7.63;;;;;;;;;;5120418;28;20593;-76
2021/04/21 00:02:56;;;;;;;8.05;7.25;;;;;;;;;;5111207;28;20512;-75
2021/04/21 00:05:23;;;;;;;9.80;8.05;;;;;;;;;;5127206;27;20202;-75
2021/04/21 00:07:49;;;;;;;12.77;8.32;;;;;;;;;;5116419;28;20222;-72
2021/04/21 00:10:15;;;;;;;9.57;8.55;;;;;;;;;;5122336;27;20191;-75
2021/04/21 00:12:41;;;;;;;9.70;8.73;;;;;;;;;;5115474;28;20539;-76
2021/04/21 00:15:08;;;;;;;12.23;8.48;;;;;;;;;;5121360;27;20179;-74
2021/04/21 00:17:37;;;;;;;11.07;9.30;;;;;;;;;;5115769;28;20241;-74
2021/04/21 00:20:05;;;;;;;10.48;7.88;;;;;;;;;;5118135;27;20174;-75
2021/04/21 00:22:31;;;;;;;10.82;9.10;;;;;;;;;;5132428;27;20171;-74
2021/04/21 00:24:57;;;;;;;18.58;8.43;;;;;;;;;;5116280;27;20166;-76
2021/04/21 00:27:25;;;;;;;9.35;8.35;;;;;;;;;;5128010;27;20248;-76
2021/04/21 00:29:53;;;;;;;8.73;7.93;;;;;;;;;;5115804;27;20531;-75
2021/04/21 00:32:23;;;;;;;10.93;9.20;;;;;;;;;;5125825;27;20182;-74
2021/04/21 00:34:49;;;;;;;12.68;8.90;;;;;;;;;;5133657;27;20265;-73
2021/04/21 00:37:16;;;;;;;13.02;8.77;;;;;;;;;;5125842;27;20209;-75
2021/04/21 00:39:42;;;;;;;12.63;9.38;;;;;;;;;;5134864;27;20645;-75
2021/04/21 00:42:11;;;;;;;12.75;9.32;;;;;;;;;;5125287;27;20642;-76
2021/04/21 00:44:41;;;;;;;11.73;7.93;;;;;;;;;;5132305;27;20511;-75
2021/04/21 00:47:13;;;;;;;12.98;9.00;;;;;;;;;;5120463;27;20202;-75
2021/04/21 00:49:45;;;;;;;11.07;8.50;;;;;;;;;;5132913;27;20186;-75
2021/04/21 00:52:15;;;;;;;10.90;8.70;;;;;;;;;;5131327;27;20261;-75
2021/04/21 00:54:50;;;;;;;11.30;9.40;;;;;;;;;;5130936;27;20223;-74
2021/04/21 00:57:16;;;;;;;10.43;8.90;;;;;;;;;;5115213;28;20194;-75
2021/04/21 00:59:55;;;;;;;9.30;8.30;;;;;;;;;;5115295;28;20186;-74
2021/04/21 01:02:24;;;;;;;11.13;9.07;;;;;;;;;;5115403;28;20418;-76
2021/04/21 01:04:51;;;;;;;10.90;9.80;;;;;;;;;;5115388;28;20258;-74
2021/04/21 01:07:18;;;;;;;9.93;8.93;;;;;;;;;;5129426;27;20223;-75
2021/04/21 01:09:46;;;;;;;9.48;8.25;;;;;;;;;;5121292;27;20535;-74
2021/04/21 01:12:14;;;;;;;12.13;8.65;;;;;;;;;;5132271;27;20676;-75
2021/04/21 01:14:43;;;;;;;10.15;8.95;;;;;;;;;;5132553;27;20695;-76
2021/04/21 01:17:10;;;;;;;11.60;8.35;;;;;;;;;;5120308;27;20199;-75
2021/04/21 01:19:42;;;;;;;9.43;8.43;;;;;;;;;;5115019;28;20227;-76
2021/04/21 01:22:12;;;;;;;9.68;8.60;;;;;;;;;;5115072;28;20539;-75
2021/04/21 01:24:50;;;;;;;9.45;7.93;;;;;;;;;;5114640;28;20206;-75
2021/04/21 01:27:17;;;;;;;10.32;8.50;;;;;;;;;;5118451;27;20201;-76
2021/04/21 01:29:45;;;;;;;14.40;9.20;;;;;;;;;;5128845;27;20185;-75
2021/04/21 01:32:11;;;;;;;12.30;9.35;;;;;;;;;;5118624;27;20187;-76
2021/04/21 01:34:38;;;;;;;11.65;9.13;;;;;;;;;;5130332;27;20162;-76
2021/04/21 01:37:06;;;;;;;11.57;8.95;;;;;;;;;;5117832;27;20206;-77
2021/04/21 01:39:35;;;;;;;15.02;9.20;;;;;;;;;;5114596;28;20190;-77
2021/04/21 01:42:02;;;;;;;14.00;9.10;;;;;;;;;;5115494;27;20564;-76
2021/04/21 01:44:30;;;;;;;10.00;8.68;;;;;;;;;;5117272;27;21536;-76
2021/04/21 01:46:58;;;;;;;13.80;9.45;;;;;;;;;;5130475;27;20194;-76
2021/04/21 01:49:25;;;;;;;10.85;9.75;;;;;;;;;;5117844;27;20254;-74
2021/04/21 01:51:55;;;;;;;10.27;9.15;;;;;;;;;;5114855;27;20189;-76
2021/04/21 01:54:23;;;;;;;13.15;8.80;;;;;;;;;;5121516;27;20226;-77
2021/04/21 01:56:55;;;;;;;12.38;8.50;;;;;;;;;;5119290;27;20274;-75
2021/04/21 01:59:24;;;;;;;10.25;7.63;;;;;;;;;;5114188;28;20179;-76
2021/04/21 02:02:07;;;;;;;13.05;8.40;;;;;;;;;;5118276;27;20181;-74
2021/04/21 02:04:54;;;;;;;9.75;8.75;;;;;;;;;;5121655;27;20586;-74
2021/04/21 02:07:37;;;;;;;8.98;7.95;;;;;;;;;;5113248;28;20678;-76
2021/04/21 02:10:24;;;;;;;11.38;8.05;;;;;;;;;;5121674;27;20560;-76
2021/04/21 02:12:54;;;;;;;10.70;8.60;;;;;;;;;;5127985;27;20568;-77
2021/04/21 02:15:22;;;;;;;10.38;7.88;;;;;;;;;;5121914;27;20189;-76
2021/04/21 02:17:52;;;;;;;14.23;8.57;;;;;;;;;;5134742;27;20531;-78
2021/04/21 02:20:21;;;;;;;12.05;9.07;;;;;;;;;;5120857;27;20531;-76
2021/04/21 02:22:47;;;;;;;10.63;8.45;;;;;;;;;;5115980;27;20179;-76
2021/04/21 02:25:22;;;;;;;10.07;8.43;;;;;;;;;;5122292;27;20581;-75
2021/04/21 02:27:52;;;;;;;11.23;8.63;;;;;;;;;;5112945;28;20436;-77
2021/04/21 02:30:33;;;;;;;11.23;8.80;;;;;;;;;;5113675;28;20170;-74
2021/04/21 02:33:18;;;;;;;11.18;8.70;;;;;;;;;;5112296;28;20635;-77
2021/04/21 02:35:47;;;;;;;12.88;8.77;;;;;;;;;;5118938;27;20186;-73
2021/04/21 02:38:15;;;;;;;13.38;8.85;;;;;;;;;;5129521;27;20198;-75
2021/04/21 02:41:00;;;;;;;9.85;8.38;;;;;;;;;;5112228;28;20627;-75
2021/04/21 02:43:45;;;;;;;18.13;9.43;;;;;;;;;;5113083;28;20174;-74
2021/04/21 02:46:30;;;;;;;14.02;9.23;;;;;;;;;;5107503;27;20531;-74
2021/04/21 02:49:15;;;;;;;11.18;8.88;;;;;;;;;;5120916;27;20178;-74
2021/04/21 02:51:50;;;;;;;11.15;8.13;;;;;;;;;;5113518;28;20653;-75
2021/04/21 02:54:22;;;;;;;10.70;8.45;;;;;;;;;;5113336;28;20561;-74
2021/04/21 02:56:48;;;;;;;13.77;8.15;;;;;;;;;;5123298;27;20205;-75
2021/04/21 02:59:17;;;;;;;9.70;7.53;;;;;;;;;;5116436;27;20536;-75
2021/04/21 03:01:46;;;;;;;10.90;8.95;;;;;;;;;;5122263;27;20389;-74
2021/04/21 03:04:31;;;;;;;10.98;9.00;;;;;;;;;;5111911;28;20180;-74
2021/04/21 03:06:59;;;;;;;10.85;8.95;;;;;;;;;;5122687;27;22278;-74
2021/04/21 03:09:27;;;;;;;12.75;8.52;;;;;;;;;;5107714;27;20189;-76
2021/04/21 03:11:56;;;;;;;11.63;9.68;;;;;;;;;;5121224;28;20259;-75
2021/04/21 03:14:24;;;;;;;11.02;8.88;;;;;;;;;;5117726;27;20548;-75
2021/04/21 03:16:52;;;;;;;13.30;8.35;;;;;;;;;;5113297;28;20579;-75
2021/04/21 03:19:23;;;;;;;11.15;8.85;;;;;;;;;;5111809;28;20190;-74
2021/04/21 03:22:02;;;;;;;12.15;9.93;;;;;;;;;;5112953;28;20178;-73
2021/04/21 03:24:29;;;;;;;11.60;9.52;;;;;;;;;;5110859;28;20265;-76
2021/04/21 03:26:57;;;;;;;12.18;9.57;;;;;;;;;;5114202;28;20198;-76
2021/04/21 03:29:28;;;;;;;12.98;9.55;;;;;;;;;;5113021;28;20177;-74
2021/04/21 03:31:56;;;;;;;14.50;10.43;;;;;;;;;;5112984;28;20170;-75
2021/04/21 03:34:23;;;;;;;15.32;9.07;;;;;;;;;;5120075;28;20193;-74
2021/04/21 03:36:50;;;;;;;12.90;9.88;;;;;;;;;;5114084;28;20197;-75
2021/04/21 03:39:16;;;;;;;11.85;9.45;;;;;;;;;;5112150;28;20218;-76
2021/04/21 03:41:42;;;;;;;11.90;9.70;;;;;;;;;;5120329;27;20174;-75
2021/04/21 03:44:08;;;;;;;13.97;10.50;;;;;;;;;;5116979;28;20383;-76
2021/04/21 03:46:34;;;;;;;11.18;10.07;;;;;;;;;;5115727;28;20467;-73
2021/04/21 03:49:00;;;;;;;13.95;9.98;;;;;;;;;;5128054;27;20174;-74
2021/04/21 03:51:27;;;;;;;12.95;9.77;;;;;;;;;;5131148;27;20273;-76
2021/04/21 03:53:53;;;;;;;11.60;10.27;;;;;;;;;;5125282;27;20649;-76
2021/04/21 03:56:24;;;;;;;14.32;10.80;;;;;;;;;;5116860;28;20182;-74
2021/04/21 03:58:52;;;;;;;12.45;10.50;;;;;;;;;;5116732;28;20522;-76
2021/04/21 04:01:22;;;;;;;12.50;10.23;;;;;;;;;;5116765;28;20174;-75
2021/04/21 04:03:50;;;;;;;14.30;10.52;;;;;;;;;;5118840;27;20174;-75
2021/04/21 04:06:20;;;;;;;13.00;10.25;;;;;;;;;;5113913;27;20211;-77
2021/04/21 04:08:46;;;;;;;11.02;9.10;;;;;;;;;;5116299;28;20183;-75
2021/04/21 04:11:12;;;;;;;15.50;9.50;;;;;;;;;;5116565;28;20235;-75
2021/04/21 04:13:40;;;;;;;13.10;9.85;;;;;;;;;;5133637;27;20419;-76
2021/04/21 04:16:06;;;;;;;14.68;10.23;;;;;;;;;;5117377;27;20228;-77
2021/04/21 04:18:33;;;;;;;16.88;10.73;;;;;;;;;;5132068;27;20693;-76
2021/04/21 04:20:59;;;;;;;15.95;11.60;;;;;;;;;;5118330;27;20179;-75
2021/04/21 04:23:26;;;;;;;13.68;9.93;;;;;;;;;;5126241;27;20178;-75
2021/04/21 04:25:52;;;;;;;15.65;10.98;;;;;;;;;;5126703;27;20197;-74
2021/04/21 04:28:19;;;;;;;14.85;10.60;;;;;;;;;;5119634;27;20209;-76
2021/04/21 04:30:45;;;;;;;15.80;10.82;;;;;;;;;;5116256;28;20179;-76
2021/04/21 04:33:11;;;;;;;14.60;11.50;;;;;;;;;;5119167;27;20286;-75
2021/04/21 04:35:38;;;;;;;13.02;11.43;;;;;;;;;;5133660;27;20190;-77
2021/04/21 04:38:04;;;;;;;14.88;11.20;;;;;;;;;;5115769;28;20210;-74
2021/04/21 04:40:31;;;;;;;15.70;11.85;;;;;;;;;;5116360;28;20167;-76
2021/04/21 04:42:57;;;;;;;15.07;12.35;;;;;;;;;;5131930;27;20174;-74
2021/04/21 04:45:26;;;;;;;14.85;11.98;;;;;;;;;;5116436;28;20244;-76
2021/04/21 04:47:55;;;;;;;14.63;12.93;;;;;;;;;;5115874;28;20190;-76
2021/04/21 04:50:22;;;;;;;15.38;12.52;;;;;;;;;;5140385;27;20594;-75
2021/04/21 04:52:49;;;;;;;19.50;12.20;;;;;;;;;;5116929;27;20581;-76
2021/04/21 04:55:16;;;;;;;13.55;12.05;;;;;;;;;;5116232;28;20254;-76
2021/04/21 04:57:43;;;;;;;12.95;11.55;;;;;;;;;;5115618;28;20567;-76
2021/04/21 05:00:10;;;;;;;16.23;12.90;;;;;;;;;;5115655;28;20190;-76
2021/04/21 05:02:44;;;;;;;16.95;13.35;;;;;;;;;;5119286;27;20177;-75
2021/04/21 05:05:10;;;;;;;16.65;13.15;;;;;;;;;;5122435;27;20182;-74
2021/04/21 05:07:47;;;;;;;17.88;13.00;;;;;;;;;;5120471;27;20201;-77
2021/04/21 05:10:18;;;;;;;16.90;13.38;;;;;;;;;;5122753;27;20202;-75
2021/04/21 05:12:45;;;;;;;18.10;13.07;;;;;;;;;;5101715;28;20180;-75
2021/04/21 05:15:31;;;;;;;20.63;14.60;;;;;;;;;;5115816;27;20182;-76
2021/04/21 05:18:00;;;;;;;15.95;12.40;;;;;;;;;;5111296;27;20213;-77
2021/04/21 05:20:26;;;;;;;15.35;11.20;;;;;;;;;;5124134;27;20504;-76
2021/04/21 05:22:51;;;;;;;26.13;14.00;;;;;;;;;;5133853;27;20184;-78
2021/04/21 05:25:27;;;;;;;15.63;13.13;;;;;;;;;;5113697;28;20482;-74
2021/04/21 05:28:08;;;;;;;18.02;12.68;;;;;;;;;;5131363;27;20559;-77
2021/04/21 05:30:45;;;;;;;18.35;13.25;;;;;;;;;;5123281;27;20178;-75
2021/04/21 05:33:33;;;;;;;20.58;13.70;;;;;;;;;;5120042;27;20181;-75
2021/04/21 05:36:21;;;;;;;24.00;14.73;;;;;;;;;;5121780;27;20178;-75
2021/04/21 05:39:04;;;;;;;19.55;14.65;;;;;;;;;;5125734;27;20182;-75
2021/04/21 05:41:30;;;;;;;21.27;14.82;;;;;;;;;;5104500;28;20198;-76
2021/04/21 05:44:15;;;;;;;22.93;15.03;;;;;;;;;;5128509;27;20196;-75
2021/04/21 05:46:59;;;;;;;19.13;14.75;;;;;;;;;;5126142;27;20435;-74
2021/04/21 05:49:44;;;;;;;17.77;15.90;;;;;;;;;;5130086;27;20561;-76
2021/04/21 05:52:22;;;;;;;20.10;15.77;;;;;;;;;;5115181;27;20174;-76
2021/04/21 05:54:58;;;;;;;19.33;15.60;;;;;;;;;;5126658;27;20638;-75
2021/04/21 05:57:24;;;;;;;17.20;14.80;;;;;;;;;;5114737;28;20234;-75
2021/04/21 05:59:56;;;;;;;16.03;14.33;;;;;;;;;;5114064;28;20175;-74
2021/04/21 06:02:24;;;;;;;21.65;17.00;;;;;;;;;;5119244;27;20915;-74
2021/04/21 06:05:03;;;;;;;20.58;15.05;;;;;;;;;;5119126;27;20175;-76
2021/04/21 06:07:29;;;;;;;17.27;15.50;;;;;;;;;;5107738;27;20247;-74
2021/04/21 06:09:55;;;;;;;17.60;15.80;;;;;;;;;;5122836;27;20623;-76
2021/04/21 06:12:23;;;;;;;18.97;16.97;;;;;;;;;;5114031;28;20379;-76
2021/04/21 06:14:51;;;;;;;18.33;16.33;;;;;;;;;;5117800;27;20387;-76
2021/04/21 06:17:23;;;;;;;18.48;16.20;;;;;;;;;;5103070;27;20204;-76
2021/04/21 06:19:49;;;;;;;21.00;16.23;;;;;;;;;;5115654;27;20185;-75
2021/04/21 06:22:25;;;;;;;23.20;16.77;;;;;;;;;;5134835;27;20170;-75
2021/04/21 06:24:51;;;;;;;22.70;16.02;;;;;;;;;;5113949;28;20420;-75
2021/04/21 06:27:17;;;;;;;19.30;16.10;;;;;;;;;;5111929;28;20282;-75
2021/04/21 06:29:43;;;;;;;18.00;15.50;;;;;;;;;;5113461;28;20781;-74
2021/04/21 06:32:13;;;;;;;16.57;14.80;;;;;;;;;;5123100;27;20464;-76
2021/04/21 06:34:39;;;;;;;22.30;15.63;;;;;;;;;;5114449;27;20439;-75
2021/04/21 06:37:05;;;;;;;17.20;15.30;;;;;;;;;;5112330;28;20206;-74
2021/04/21 06:39:32;;;;;;;22.07;15.73;;;;;;;;;;5116102;27;21045;-76
2021/04/21 06:42:03;;;;;;;18.85;15.60;;;;;;;;;;5110496;28;20440;-75
2021/04/21 06:44:43;;;;;;;21.60;17.30;;;;;;;;;;5110347;28;20746;-76
2021/04/21 06:47:12;;;;;;;17.05;15.30;;;;;;;;;;5106832;28;20679;-76
2021/04/21 06:49:38;;;;;;;20.67;15.48;;;;;;;;;;5110537;27;20182;-75
2021/04/21 06:52:14;;;;;;;17.20;15.37;;;;;;;;;;5109263;28;20483;-76
2021/04/21 06:54:40;;;;;;;17.02;14.63;;;;;;;;;;5107683;28;20387;-76
2021/04/21 06:57:06;;;;;;;18.27;15.40;;;;;;;;;;5109597;28;20233;-74
2021/04/21 06:59:32;;;;;;;18.98;16.48;;;;;;;;;;5109983;28;20420;-75
2021/04/21 07:01:58;;;;;;;17.55;15.75;;;;;;;;;;5123673;27;20174;-75
2021/04/21 07:04:24;;;;;;;18.00;15.70;;;;;;;;;;5109709;28;20313;-76
2021/04/21 07:06:50;;;;;;;18.77;16.73;;;;;;;;;;5109650;28;20491;-74
2021/04/21 07:09:17;;;;;;;18.10;16.17;;;;;;;;;;5109862;28;20174;-75
2021/04/21 07:11:44;;;;;;;21.48;16.70;;;;;;;;;;5109734;28;20183;-75
2021/04/21 07:14:17;;;;;;;19.27;17.27;;;;;;;;;;5116680;27;20673;-74
2021/04/21 07:16:43;;;;;;;19.58;15.88;;;;;;;;;;5116196;27;20217;-74
2021/04/21 07:19:13;;;;;;;17.23;15.38;;;;;;;;;;5128571;27;20264;-75
2021/04/21 07:21:40;;;;;;;15.45;13.95;;;;;;;;;;5118041;28;20185;-74
2021/04/21 07:24:07;;;;;;;16.70;14.88;;;;;;;;;;5130078;28;20523;-75
2021/04/21 07:26:44;;;;;;;16.00;14.23;;;;;;;;;;5114203;28;20198;-74
2021/04/21 07:29:16;;;;;;;15.43;13.93;;;;;;;;;;5104444;28;20526;-75
2021/04/21 07:31:43;;;;;;;16.65;13.15;;;;;;;;;;5109357;28;20246;-74
2021/04/21 07:34:14;;;;;;;20.02;14.57;;;;;;;;;;5111456;28;20201;-74
2021/04/21 07:36:47;;;;;;;15.20;13.68;;;;;;;;;;5109049;28;20198;-77
2021/04/21 07:39:13;;;;;;;16.05;13.57;;;;;;;;;;5115493;28;20201;-76
2021/04/21 07:41:43;;;;;;;22.95;15.05;;;;;;;;;;5119032;28;20712;-77
2021/04/21 07:44:54;;;;;;;21.25;14.88;;;;;;;;;;5107793;28;20351;-75
2021/04/21 07:47:22;;;;;;;19.90;16.52;;;;;;;;;;5108434;27;20607;-74
2021/04/21 07:49:56;;;;;;;20.33;16.88;;;;;;;;;;5122592;28;20178;-76
2021/04/21 07:52:26;;;;;;;19.95;16.13;;;;;;;;;;5112755;28;20226;-77
2021/04/21 07:55:10;;;;;;;18.52;16.40;;;;;;;;;;5124313;28;20175;-76
2021/04/21 07:57:36;;;;;;;18.80;15.43;;;;;;;;;;5111914;28;20215;-78
2021/04/21 08:00:04;;;;;;;18.27;15.90;;;;;;;;;;5118468;28;20235;-75
2021/04/21 08:02:33;;;;;;;17.75;15.82;;;;;;;;;;5112589;28;20186;-75
2021/04/21 08:05:01;;;;;;;19.35;17.27;;;;;;;;;;5109055;28;20183;-74
2021/04/21 08:07:28;;;;;;;21.25;19.05;;;;;;;;;;5107868;28;20796;-76
2021/04/21 08:09:54;;;;;;;20.55;18.13;;;;;;;;;;5122569;28;20186;-73
2021/04/21 08:12:21;;;;;;;24.23;21.70;;;;;;;;;;5107435;28;20664;-75
2021/04/21 08:14:51;;;;;;;29.27;23.38;;;;;;;;;;5121057;28;20972;-75
2021/04/21 08:17:18;;;;;;;24.67;22.10;;;;;;;;;;5108850;28;20261;-77
2021/04/21 08:19:45;;;;;;;26.73;23.92;;;;;;;;;;5129124;28;20177;-75
2021/04/21 08:22:12;;;;;;;25.50;22.80;;;;;;;;;;5114862;28;20183;-74
2021/04/21 08:24:43;;;;;;;24.17;21.65;;;;;;;;;;5128951;28;20239;-75
2021/04/21 08:27:11;;;;;;;26.08;23.00;;;;;;;;;;5122560;27;20202;-76
2021/04/21 08:29:37;;;;;;;31.05;25.70;;;;;;;;;;5120151;27;20173;-74
2021/04/21 08:32:04;;;;;;;30.73;24.37;;;;;;;;;;5133219;27;20238;-74
2021/04/21 08:34:30;;;;;;;27.33;24.00;;;;;;;;;;5107787;27;20421;-76
2021/04/21 08:36:56;;;;;;;28.47;25.37;;;;;;;;;;5104621;28;20219;-75
2021/04/21 08:39:22;;;;;;;32.60;26.83;;;;;;;;;;5113852;27;20495;-75
2021/04/21 08:41:50;;;;;;;29.58;26.40;;;;;;;;;;5112709;28;20413;-77
2021/04/21 08:44:19;;;;;;;31.42;27.00;;;;;;;;;;5112519;28;20540;-76
2021/04/21 08:46:46;;;;;;;33.17;27.15;;;;;;;;;;5126053;27;20194;-75
2021/04/21 08:49:11;;;;;;;34.33;28.60;;;;;;;;;;5112047;28;20626;-76
2021/04/21 08:51:40;;;;;;;32.40;27.43;;;;;;;;;;5113016;27;20205;-76
2021/04/21 08:54:09;;;;;;;36.95;30.60;;;;;;;;;;5124596;27;20420;-76
2021/04/21 08:56:36;;;;;;;36.70;28.70;;;;;;;;;;5110558;28;20574;-76
2021/04/21 08:59:05;;;;;;;35.83;29.42;;;;;;;;;;5112443;27;20175;-76
2021/04/21 09:01:31;;;;;;;35.22;30.50;;;;;;;;;;5124340;27;20190;-75
2021/04/21 09:03:57;;;;;;;31.63;26.10;;;;;;;;;;5111895;28;20300;-75
2021/04/21 09:06:23;;;;;;;32.58;26.30;;;;;;;;;;5111920;28;20235;-76
2021/04/21 09:08:51;;;;;;;30.88;24.73;;;;;;;;;;5111858;28;20673;-74
2021/04/21 09:11:17;;;;;;;29.42;21.65;;;;;;;;;;5112283;28;20175;-76
2021/04/21 09:13:43;;;;;;;30.35;24.13;;;;;;;;;;5112239;27;20182;-73
2021/04/21 09:16:10;;;;;;;27.13;22.23;;;;;;;;;;5112060;28;20175;-75
2021/04/21 09:18:36;;;;;;;26.90;23.50;;;;;;;;;;5121597;27;20459;-75
2021/04/21 09:21:03;;;;;;;27.48;22.52;;;;;;;;;;5132117;27;20201;-75
2021/04/21 09:23:36;;;;;;;26.63;21.35;;;;;;;;;;5122438;27;20163;-76
2021/04/21 09:26:12;;;;;;;25.83;22.25;;;;;;;;;;5125534;27;20205;-75
2021/04/21 09:28:40;;;;;;;26.65;21.20;;;;;;;;;;5105918;28;20177;-77
2021/04/21 09:31:07;;;;;;;26.85;19.73;;;;;;;;;;5111514;28;20186;-76
2021/04/21 09:33:33;;;;;;;26.02;21.25;;;;;;;;;;5110939;28;20178;-74
2021/04/21 09:35:59;;;;;;;22.67;19.47;;;;;;;;;;5121477;27;20240;-76
2021/04/21 09:38:29;;;;;;;28.20;20.80;;;;;;;;;;5122057;27;20467;-76
2021/04/21 09:40:58;;;;;;;24.05;20.58;;;;;;;;;;5119912;27;20425;-74
2021/04/21 09:43:28;;;;;;;25.75;19.75;;;;;;;;;;5123424;27;20273;-75
2021/04/21 09:45:55;;;;;;;26.02;20.40;;;;;;;;;;5111127;28;20570;-74
2021/04/21 09:48:32;;;;;;;25.30;20.25;;;;;;;;;;5115427;27;20205;-75
2021/04/21 09:51:06;;;;;;;26.88;21.10;;;;;;;;;;5131775;27;20184;-74
2021/04/21 09:53:35;;;;;;;25.38;21.70;;;;;;;;;;5112387;27;20937;-75
2021/04/21 09:56:12;;;;;;;25.23;21.48;;;;;;;;;;5111370;28;20189;-75
2021/04/21 09:58:41;;;;;;;23.85;20.00;;;;;;;;;;5118186;27;20304;-76
2021/04/21 10:01:20;;;;;;;22.25;19.13;;;;;;;;;;5115158;27;20181;-75
2021/04/21 10:03:47;;;;;;;19.27;17.17;;;;;;;;;;5110571;28;20165;-75
2021/04/21 10:06:22;;;;;;;20.67;17.38;;;;;;;;;;5123777;27;20229;-75
2021/04/21 10:08:48;;;;;;;18.65;16.50;;;;;;;;;;5123571;27;20212;-75
2021/04/21 10:11:14;;;;;;;21.02;17.85;;;;;;;;;;5131405;27;20205;-75
2021/04/21 10:13:40;;;;;;;22.83;17.38;;;;;;;;;;5131289;27;20177;-76
2021/04/21 10:16:07;;;;;;;19.47;15.97;;;;;;;;;;5109739;27;20190;-75
2021/04/21 10:18:33;;;;;;;17.85;16.05;;;;;;;;;;5110921;28;20460;-74
2021/04/21 10:20:59;;;;;;;18.17;15.68;;;;;;;;;;5110251;28;20174;-75
2021/04/21 10:23:25;;;;;;;19.40;15.82;;;;;;;;;;5110455;28;20171;-74
2021/04/21 10:25:51;;;;;;;17.40;15.52;;;;;;;;;;5109109;28;20648;-74
2021/04/21 10:28:18;;;;;;;16.13;14.43;;;;;;;;;;5110241;28;20209;-75
2021/04/21 10:30:44;;;;;;;16.83;15.13;;;;;;;;;;5110018;28;20433;-76
2021/04/21 10:33:10;;;;;;;15.30;13.70;;;;;;;;;;5109026;28;20187;-74
2021/04/21 10:35:36;;;;;;;14.95;12.20;;;;;;;;;;5113070;27;20193;-74
2021/04/21 10:38:02;;;;;;;12.63;11.10;;;;;;;;;;5108612;28;20210;-74
2021/04/21 10:40:30;;;;;;;12.10;9.07;;;;;;;;;;5114737;27;20533;-74
2021/04/21 10:43:02;;;;;;;11.77;8.80;;;;;;;;;;5110052;28;20929;-75
2021/04/21 10:45:29;;;;;;;9.65;8.60;;;;;;;;;;5109020;28;20182;-75
2021/04/21 10:47:55;;;;;;;9.40;7.20;;;;;;;;;;5112775;27;20210;-74
2021/04/21 10:50:37;;;;;;;9.13;6.18;;;;;;;;;;5123214;27;20185;-77
2021/04/21 10:53:03;;;;;;;6.38;5.25;;;;;;;;;;5109699;28;20223;-75
2021/04/21 10:55:29;;;;;;;6.40;5.70;;;;;;;;;;5110265;28;20774;-75
2021/04/21 10:57:55;;;;;;;5.90;5.30;;;;;;;;;;5119188;27;20224;-77
2021/04/21 11:00:24;;;;;;;7.10;5.67;;;;;;;;;;5110075;28;20408;-76
2021/04/21 11:02:56;;;;;;;6.53;4.67;;;;;;;;;;5109903;28;20790;-77
2021/04/21 11:05:42;;;;;;;5.27;4.53;;;;;;;;;;5112150;27;20442;-74
2021/04/21 11:08:17;;;;;;;13.33;10.90;;;;;;;;;;5113065;27;20432;-75
2021/04/21 11:10:53;;;;;;;4.80;4.40;;;;;;;;;;5121980;27;20552;-73
2021/04/21 11:13:35;;;;;;;5.63;4.37;;;;;;;;;;5103423;27;20468;-74
2021/04/21 11:16:02;;;;;;;6.77;4.57;;;;;;;;;;5114726;27;20432;-73
2021/04/21 11:18:29;;;;;;;5.10;4.03;;;;;;;;;;5130277;27;20496;-73
2021/04/21 11:20:56;;;;;;;4.67;4.17;;;;;;;;;;5129888;27;20419;-74
2021/04/21 11:23:41;;;;;;;7.57;4.97;;;;;;;;;;5129960;28;20418;-74
2021/04/21 11:29:13;;;;;;;6.53;3.23;;;;;;;;;;5108173;28;20966;-75
2021/04/21 11:31:45;;;;;;;4.17;2.80;;;;;;;;;;5130400;28;20410;-74
2021/04/21 11:34:14;;;;;;;4.40;2.50;;;;;;;;;;5114843;28;20415;-75
2021/04/21 11:36:40;;;;;;;5.60;3.27;;;;;;;;;;5111414;28;20449;-75
2021/04/21 11:39:06;;;;;;;4.33;2.77;;;;;;;;;;5122723;28;20416;-75
2021/04/21 11:41:39;;;;;;;5.83;2.93;;;;;;;;;;5109321;28;20438;-75
2021/04/21 11:44:08;;;;;;;16.13;2.70;;;;;;;;;;5114006;28;20423;-75
2021/04/21 11:46:52;;;;;;;5.60;2.50;;;;;;;;;;5124583;28;20786;-74
2021/04/21 11:49:59;;;;;;;5.93;2.53;;;;;;;;;;5104490;28;20572;-76
2021/04/21 11:52:44;;;;;;;7.33;3.00;;;;;;;;;;5117745;28;20423;-75
2021/04/21 11:55:25;;;;;;;7.68;2.58;;;;;;;;;;5123119;28;20426;-76
2021/04/21 11:57:52;;;;;;;7.25;2.75;;;;;;;;;;5121089;28;20266;-75
2021/04/21 12:00:20;;;;;;;9.50;2.85;;;;;;;;;;5110352;28;20179;-75
2021/04/21 12:02:46;;;;;;;5.20;2.50;;;;;;;;;;5113390;27;20189;-74
2021/04/21 12:05:13;;;;;;;4.53;2.10;;;;;;;;;;5113189;28;20201;-75
2021/04/21 12:07:39;;;;;;;10.52;2.38;;;;;;;;;;5111553;28;20624;-75
2021/04/21 12:10:05;;;;;;;6.30;2.50;;;;;;;;;;5113142;28;20252;-75
2021/04/21 12:12:31;;;;;;;7.27;2.57;;;;;;;;;;5114680;27;21183;-74
2021/04/21 12:15:03;;;;;;;5.20;2.33;;;;;;;;;;5112664;28;20424;-76
2021/04/21 12:17:29;;;;;;;8.00;2.17;;;;;;;;;;5112320;27;20502;-75
2021/04/21 12:19:58;;;;;;;5.13;2.17;;;;;;;;;;5122487;27;20416;-75
2021/04/21 12:22:37;;;;;;;6.60;2.27;;;;;;;;;;5129784;27;20400;-76
2021/04/21 12:25:05;;;;;;;5.27;2.00;;;;;;;;;;5122074;27;20432;-76
2021/04/21 12:27:31;;;;;;;4.57;2.33;;;;;;;;;;5112094;28;20434;-77
2021/04/21 12:30:07;;;;;;;5.90;2.50;;;;;;;;;;5112304;27;20444;-76
2021/04/21 12:32:33;;;;;;;6.90;2.00;;;;;;;;;;5101906;27;20427;-74
2021/04/21 12:34:59;;;;;;;5.63;2.33;;;;;;;;;;5110908;28;20445;-76
2021/04/21 12:37:26;;;;;;;4.30;2.33;;;;;;;;;;5115033;27;20489;-76
2021/04/21 12:39:52;;;;;;;8.00;2.40;;;;;;;;;;5126307;27;20460;-75
2021/04/21 12:42:21;;;;;;;3.73;2.13;;;;;;;;;;5130429;27;20395;-76
2021/04/21 12:44:47;;;;;;;6.20;2.30;;;;;;;;;;5126540;27;20442;-77
2021/04/21 12:47:14;;;;;;;6.30;2.60;;;;;;;;;;5125485;27;20525;-75
2021/04/21 12:49:46;;;;;;;6.57;2.00;;;;;;;;;;5126244;27;20418;-76
2021/04/21 12:52:13;;;;;;;7.60;2.30;;;;;;;;;;5110560;28;20959;-76
2021/04/21 12:54:47;;;;;;;6.70;2.73;;;;;;;;;;5127331;27;20416;-76
2021/04/21 12:57:14;;;;;;;8.13;2.60;;;;;;;;;;5129166;27;20455;-75
2021/04/21 12:59:40;;;;;;;8.97;2.83;;;;;;;;;;5114201;27;20423;-75
2021/04/21 13:02:06;;;;;;;6.00;2.60;;;;;;;;;;5130720;27;20924;-76
2021/04/21 13:04:42;;;;;;;4.20;2.60;;;;;;;;;;5125742;27;20426;-75
2021/04/21 13:07:12;;;;;;;4.80;2.90;;;;;;;;;;5122120;27;20503;-74
2021/04/21 13:09:38;;;;;;;6.60;2.77;;;;;;;;;;5111769;27;20417;-75
2021/04/21 13:12:05;;;;;;;6.87;3.10;;;;;;;;;;5111388;28;20769;-74
2021/04/21 13:14:41;;;;;;;12.93;9.03;;;;;;;;;;5112104;27;20432;-73
2021/04/21 13:17:08;;;;;;;5.47;3.10;;;;;;;;;;5114897;27;20755;-74
2021/04/21 13:19:35;;;;;;;6.10;2.80;;;;;;;;;;5115423;27;20453;-75
2021/04/21 13:22:05;;;;;;;5.13;2.70;;;;;;;;;;5127214;27;20420;-74
2021/04/21 13:24:43;;;;;;;5.43;3.80;;;;;;;;;;5110900;27;20953;-74
2021/04/21 13:27:16;;;;;;;9.10;3.30;;;;;;;;;;5112642;27;20451;-74
2021/04/21 13:29:42;;;;;;;7.37;3.60;;;;;;;;;;5113978;27;20431;-75
2021/04/21 13:32:12;;;;;;;7.07;3.80;;;;;;;;;;5115406;27;20510;-74
2021/04/21 13:34:40;;;;;;;6.47;3.47;;;;;;;;;;5118153;27;20425;-76
2021/04/21 13:37:06;;;;;;;8.35;3.22;;;;;;;;;;5109464;28;20471;-74
2021/04/21 13:39:32;;;;;;;6.90;4.33;;;;;;;;;;5111014;28;20193;-74
2021/04/21 13:41:58;;;;;;;5.70;3.53;;;;;;;;;;5125107;27;20405;-75
2021/04/21 13:44:25;;;;;;;6.93;3.50;;;;;;;;;;5117201;27;20742;-73
2021/04/21 13:46:51;;;;;;;5.60;3.17;;;;;;;;;;5124726;27;20793;-75
2021/04/21 13:49:18;;;;;;;7.23;3.60;;;;;;;;;;5110697;27;20182;-74
2021/04/21 13:51:44;;;;;;;9.43;3.63;;;;;;;;;;5114639;27;20843;-75
2021/04/21 13:54:11;;;;;;;10.35;3.25;;;;;;;;;;5122781;27;20205;-76
2021/04/21 13:56:37;;;;;;;6.18;4.05;;;;;;;;;;5116125;27;20193;-74
2021/04/21 13:59:03;;;;;;;7.97;2.80;;;;;;;;;;5118147;27;20210;-74
2021/04/21 14:01:33;;;;;;;7.53;3.55;;;;;;;;;;5124229;27;20228;-75
2021/04/21 14:03:59;;;;;;;8.57;3.35;;;;;;;;;;5110339;28;20213;-75
2021/04/21 14:06:25;;;;;;;5.75;2.58;;;;;;;;;;5110452;28;20242;-75
2021/04/21 14:08:51;;;;;;;6.00;3.17;;;;;;;;;;5110331;28;20186;-75
2021/04/21 14:11:17;;;;;;;6.00;2.60;;;;;;;;;;5114752;27;20189;-75
2021/04/21 14:13:43;;;;;;;4.03;2.60;;;;;;;;;;5117237;27;20620;-75
2021/04/21 14:16:09;;;;;;;9.88;3.47;;;;;;;;;;5116253;27;20185;-74
2021/04/21 14:18:35;;;;;;;4.87;3.07;;;;;;;;;;5119200;27;20198;-74
2021/04/21 14:21:01;;;;;;;6.63;3.00;;;;;;;;;;5110198;27;20993;-75
2021/04/21 14:23:27;;;;;;;8.43;3.38;;;;;;;;;;5107459;28;20516;-75
2021/04/21 14:25:53;;;;;;;5.47;2.87;;;;;;;;;;5113331;27;20185;-75
2021/04/21 14:28:20;;;;;;;4.05;2.25;;;;;;;;;;5118143;27;20440;-74
2021/04/21 14:30:46;;;;;;;5.80;2.40;;;;;;;;;;5111632;27;20189;-74
2021/04/21 14:33:12;;;;;;;4.47;2.50;;;;;;;;;;5113183;27;20190;-74
2021/04/21 14:35:39;;;;;;;6.95;2.05;;;;;;;;;;5123622;27;20605;-74
2021/04/21 14:38:05;;;;;;;5.60;1.85;;;;;;;;;;5109473;28;20964;-74
2021/04/21 14:40:32;;;;;;;3.10;1.65;;;;;;;;;;5109245;28;20670;-75
2021/04/21 14:42:58;;;;;;;5.30;1.80;;;;;;;;;;5108077;28;20178;-75
2021/04/21 14:45:24;;;;;;;3.07;1.50;;;;;;;;;;5123289;27;20190;-73